createdAt,value
2022-11-08T00:00:47.678Z,3.50
2022-11-08T00:03:25.420Z,3.30
2022-11-08T00:06:15.448Z,3.33
2022-11-08T00:09:07.791Z,2.93
2022-11-08T00:11:58.169Z,3.10
2022-11-08T00:14:32.443Z,3.30
2022-11-08T00:17:05.095Z,3.17
2022-11-08T00:19:37.732Z,3.33
2022-11-08T00:22:12.453Z,3.17
2022-11-08T00:24:45.253Z,2.87
2022-11-08T00:27:18.871Z,3.30
2022-11-08T00:29:52.826Z,3.00
2022-11-08T00:32:26.723Z,3.30
2022-11-08T00:34:59.339Z,3.07
2022-11-08T00:37:31.920Z,3.07
2022-11-08T00:40:05.019Z,3.07
2022-11-08T00:42:37.656Z,3.20
2022-11-08T00:45:11.756Z,3.27
2022-11-08T00:47:44.323Z,2.80
2022-11-08T00:50:17.182Z,2.90
2022-11-08T00:52:49.837Z,2.90
2022-11-08T00:55:22.579Z,3.17
2022-11-08T00:57:59.670Z,2.93
2022-11-08T01:00:34.481Z,3.20
2022-11-08T01:03:21.853Z,3.17
2022-11-08T01:05:57.986Z,3.07
2022-11-08T01:08:30.542Z,3.00
2022-11-08T01:11:04.346Z,3.13
2022-11-08T01:13:36.975Z,3.27
2022-11-08T01:16:12.153Z,3.13
2022-11-08T01:18:45.286Z,3.57
2022-11-08T01:21:18.196Z,3.43
2022-11-08T01:23:53.487Z,3.00
2022-11-08T01:26:27.513Z,2.70
2022-11-08T01:29:01.830Z,2.87
2022-11-08T01:31:35.858Z,2.83
2022-11-08T01:34:08.390Z,3.53
2022-11-08T01:36:41.025Z,2.90
2022-11-08T01:39:13.677Z,2.93
2022-11-08T01:41:46.253Z,3.90
2022-11-08T01:44:25.936Z,2.97
2022-11-08T01:47:00.087Z,2.93
2022-11-08T01:49:38.427Z,3.10
2022-11-08T01:52:17.043Z,2.73
2022-11-08T01:54:52.603Z,2.57
2022-11-08T01:57:29.477Z,4.00
2022-11-08T02:00:05.468Z,2.67
2022-11-08T02:02:39.943Z,3.03
2022-11-08T02:05:24.884Z,3.03
2022-11-08T02:08:00.582Z,3.23
2022-11-08T02:10:35.470Z,3.10
2022-11-08T02:13:18.149Z,2.93
2022-11-08T02:15:51.026Z,3.10
2022-11-08T02:18:27.080Z,3.00
2022-11-08T02:21:04.781Z,2.77
2022-11-08T02:23:46.556Z,3.17
2022-11-08T02:26:20.036Z,2.87
2022-11-08T02:28:55.801Z,2.97
2022-11-08T02:31:28.611Z,2.83
2022-11-08T02:34:01.291Z,3.13
2022-11-08T02:36:33.969Z,2.77
2022-11-08T02:39:10.218Z,3.17
2022-11-08T02:41:42.686Z,3.00
2022-11-08T02:44:15.365Z,3.17
2022-11-08T02:46:47.927Z,3.07
2022-11-08T02:49:20.620Z,3.50
2022-11-08T02:51:54.213Z,2.83
2022-11-08T02:54:30.946Z,2.67
2022-11-08T02:57:03.503Z,2.97
2022-11-08T02:59:36.210Z,2.90
2022-11-08T03:02:08.923Z,3.10
2022-11-08T03:04:41.721Z,2.93
2022-11-08T03:07:14.268Z,3.37
2022-11-08T03:09:48.483Z,3.03
2022-11-08T03:12:21.571Z,3.17
2022-11-08T03:14:54.252Z,3.00
2022-11-08T03:17:29.798Z,3.00
2022-11-08T03:20:02.780Z,3.30
2022-11-08T03:22:35.582Z,3.27
2022-11-08T03:25:09.800Z,3.20
2022-11-08T03:27:44.449Z,2.53
2022-11-08T03:30:17.191Z,3.13
2022-11-08T03:32:50.119Z,2.53
2022-11-08T03:35:22.626Z,2.70
2022-11-08T03:37:56.173Z,3.40
2022-11-08T03:40:30.253Z,2.90
2022-11-08T03:43:05.739Z,3.30
2022-11-08T03:45:38.435Z,2.97
2022-11-08T03:48:11.123Z,2.80
2022-11-08T03:50:43.820Z,3.27
2022-11-08T03:53:19.193Z,3.00
2022-11-08T03:55:55.267Z,3.73
2022-11-08T03:58:27.898Z,3.43
2022-11-08T04:01:04.244Z,3.00
2022-11-08T04:03:36.923Z,3.20
2022-11-08T04:06:09.612Z,3.17
2022-11-08T04:08:42.263Z,3.37
2022-11-08T04:11:33.890Z,3.60
2022-11-08T04:14:24.019Z,3.30
2022-11-08T04:16:56.583Z,3.60
2022-11-08T04:19:46.693Z,3.13
2022-11-08T04:22:19.400Z,3.27
2022-11-08T04:24:52.011Z,2.70
2022-11-08T04:27:26.000Z,3.70
2022-11-08T04:29:58.615Z,3.40
2022-11-08T04:32:31.234Z,3.57
2022-11-08T04:35:03.970Z,3.23
2022-11-08T04:37:36.625Z,3.47
2022-11-08T04:40:10.047Z,3.23
2022-11-08T04:42:45.829Z,3.47
2022-11-08T04:45:18.505Z,3.53
2022-11-08T04:47:51.131Z,3.40
2022-11-08T04:50:23.916Z,3.27
2022-11-08T04:52:59.724Z,3.43
2022-11-08T04:55:32.544Z,3.73
2022-11-08T04:58:06.475Z,3.37
2022-11-08T05:00:39.159Z,3.30
2022-11-08T05:03:11.955Z,3.43
2022-11-08T05:05:44.629Z,3.37
2022-11-08T05:08:17.580Z,3.27
2022-11-08T05:10:50.340Z,3.20
2022-11-08T05:13:26.844Z,3.60
2022-11-08T05:16:01.032Z,4.30
2022-11-08T05:18:36.555Z,3.50
2022-11-08T05:21:28.311Z,5.17
2022-11-08T05:24:01.435Z,3.97
2022-11-08T05:26:37.019Z,3.63
2022-11-08T05:29:11.493Z,3.50
2022-11-08T05:31:45.351Z,3.23
2022-11-08T05:34:17.994Z,3.70
2022-11-08T05:36:50.617Z,3.90
2022-11-08T05:39:23.228Z,3.53
2022-11-08T05:41:55.857Z,3.80
2022-11-08T05:44:29.770Z,3.83
2022-11-08T05:47:02.520Z,4.57
2022-11-08T05:49:35.124Z,4.27
2022-11-08T05:52:07.745Z,4.60
2022-11-08T05:54:40.697Z,4.43
2022-11-08T05:57:13.675Z,3.90
2022-11-08T05:59:47.601Z,4.20
2022-11-08T06:02:20.313Z,4.30
2022-11-08T06:04:53.177Z,4.10
2022-11-08T06:07:25.839Z,4.53
2022-11-08T06:09:58.420Z,4.57
2022-11-08T06:12:31.052Z,4.43
2022-11-08T06:15:07.461Z,4.20
2022-11-08T06:17:40.234Z,4.67
2022-11-08T06:20:15.755Z,4.60
2022-11-08T06:22:48.359Z,4.20
2022-11-08T06:25:21.755Z,4.10
2022-11-08T06:27:54.343Z,4.47
2022-11-08T06:30:28.292Z,4.13
2022-11-08T06:33:03.887Z,4.70
2022-11-08T06:35:37.407Z,4.30
2022-11-08T06:38:10.045Z,4.83
2022-11-08T06:40:42.656Z,4.50
2022-11-08T06:43:19.569Z,4.57
2022-11-08T06:45:54.060Z,5.03
2022-11-08T06:48:35.121Z,4.57
2022-11-08T06:51:09.664Z,4.83
2022-11-08T06:53:42.203Z,4.93
2022-11-08T06:56:15.122Z,5.43
2022-11-08T06:58:47.709Z,5.30
2022-11-08T07:01:21.769Z,5.10
2022-11-08T07:03:54.401Z,5.50
2022-11-08T07:06:27.255Z,5.80
2022-11-08T07:09:00.019Z,5.43
2022-11-08T07:11:32.618Z,5.27
2022-11-08T07:14:05.277Z,4.73
2022-11-08T07:16:39.229Z,5.27
2022-11-08T07:19:11.934Z,4.97
2022-11-08T07:21:46.261Z,5.07
2022-11-08T07:24:19.150Z,4.97
2022-11-08T07:26:51.851Z,4.97
2022-11-08T07:29:24.546Z,5.50
2022-11-08T07:31:58.479Z,4.93
2022-11-08T07:34:33.489Z,5.13
2022-11-08T07:37:07.303Z,4.70
2022-11-08T07:39:40.165Z,5.10
2022-11-08T07:42:12.722Z,4.73
2022-11-08T07:44:45.346Z,5.20
2022-11-08T07:47:19.344Z,6.17
2022-11-08T07:49:55.021Z,4.83
2022-11-08T07:52:27.837Z,5.10
2022-11-08T07:55:00.334Z,5.13
2022-11-08T07:57:36.207Z,4.57
2022-11-08T08:00:09.605Z,4.80
2022-11-08T08:02:43.608Z,5.17
2022-11-08T08:05:18.957Z,6.17
2022-11-08T08:07:52.603Z,4.60
2022-11-08T08:10:27.921Z,4.60
2022-11-08T08:13:01.687Z,4.70
2022-11-08T08:15:34.339Z,5.33
2022-11-08T08:18:09.176Z,4.70
2022-11-08T08:20:41.843Z,4.63
2022-11-08T08:23:14.491Z,4.37
2022-11-08T08:25:47.233Z,4.07
2022-11-08T08:28:20.167Z,4.23
2022-11-08T08:30:53.740Z,5.23
2022-11-08T08:33:29.114Z,4.10
2022-11-08T08:36:02.436Z,4.60
2022-11-08T08:38:38.731Z,5.47
2022-11-08T08:41:14.221Z,4.60
2022-11-08T08:43:46.793Z,4.70
2022-11-08T08:46:19.456Z,4.43
2022-11-08T08:48:53.651Z,4.30
2022-11-08T08:51:26.248Z,3.47
2022-11-08T08:53:59.149Z,3.90
2022-11-08T08:56:34.088Z,4.20
2022-11-08T09:02:03.911Z,4.13
2022-11-08T09:04:39.081Z,3.70
2022-11-08T09:07:11.787Z,3.30
2022-11-08T09:09:44.676Z,3.33
2022-11-08T09:12:17.343Z,3.03
2022-11-08T09:14:50.031Z,3.23
2022-11-08T09:17:25.237Z,3.30
2022-11-08T09:19:59.399Z,3.53
2022-11-08T09:22:35.775Z,2.93
2022-11-08T09:25:10.490Z,2.93
2022-11-08T09:27:43.055Z,2.90
2022-11-08T09:30:15.834Z,3.40
2022-11-08T09:33:03.939Z,3.53
2022-11-08T09:35:37.955Z,3.60
2022-11-08T09:38:10.487Z,3.20
2022-11-08T09:40:48.830Z,2.97
2022-11-08T09:43:37.182Z,2.80
2022-11-08T09:46:10.454Z,3.10
2022-11-08T09:48:43.966Z,3.13
2022-11-08T09:51:19.504Z,3.03
2022-11-08T09:53:53.862Z,2.57
2022-11-08T09:56:28.996Z,3.37
2022-11-08T09:59:04.128Z,2.77
2022-11-08T10:01:37.465Z,3.40
2022-11-08T10:04:13.607Z,2.70
2022-11-08T10:07:03.909Z,2.90
2022-11-08T10:09:41.630Z,2.80
2022-11-08T10:12:18.839Z,2.70
2022-11-08T10:14:57.900Z,2.80
2022-11-08T10:17:43.955Z,2.83
2022-11-08T10:20:21.458Z,2.37
2022-11-08T10:23:00.579Z,2.80
2022-11-08T10:25:37.230Z,3.80
2022-11-08T10:28:15.872Z,2.50
2022-11-08T10:30:49.885Z,5.27
2022-11-08T10:33:25.925Z,4.47
2022-11-08T10:36:02.446Z,3.23
2022-11-08T10:38:39.430Z,2.70
2022-11-08T10:41:15.301Z,3.30
2022-11-08T10:43:50.277Z,2.90
2022-11-08T10:46:31.287Z,2.43
2022-11-08T10:49:11.661Z,2.83
2022-11-08T10:51:44.868Z,3.17
2022-11-08T10:54:39.170Z,2.50
2022-11-08T10:57:13.948Z,2.60
2022-11-08T10:59:46.795Z,2.13
2022-11-08T11:02:21.276Z,1.80
2022-11-08T11:04:54.960Z,2.80
2022-11-08T11:07:34.218Z,4.53
2022-11-08T11:10:18.663Z,4.47
2022-11-08T11:12:59.417Z,2.30
2022-11-08T11:15:34.859Z,2.93
2022-11-08T11:18:20.285Z,2.60
2022-11-08T11:21:05.404Z,2.30
2022-11-08T11:23:44.187Z,2.70
2022-11-08T11:26:29.535Z,2.97
2022-11-08T11:29:16.511Z,2.07
2022-11-08T11:31:52.324Z,2.93
2022-11-08T11:34:48.841Z,2.80
2022-11-08T11:37:26.306Z,2.20
2022-11-08T11:40:07.760Z,2.80
2022-11-08T11:42:46.160Z,3.20
2022-11-08T11:45:24.977Z,3.23
2022-11-08T11:48:00.697Z,3.00
2022-11-08T11:50:37.457Z,2.50
2022-11-08T11:53:15.230Z,2.00
2022-11-08T11:56:06.184Z,2.27
2022-11-08T11:59:03.226Z,2.40
2022-11-08T12:01:48.169Z,2.30
2022-11-08T12:04:33.406Z,3.00
2022-11-08T12:07:10.305Z,2.90
2022-11-08T12:09:49.400Z,2.80
2022-11-08T12:12:26.374Z,4.50
2022-11-08T12:15:02.765Z,4.20
2022-11-08T12:17:50.156Z,3.73
2022-11-08T12:20:35.566Z,2.83
2022-11-08T12:23:17.108Z,4.07
2022-11-08T12:25:51.935Z,2.90
2022-11-08T12:28:39.816Z,3.13
2022-11-08T12:31:21.741Z,2.60
2022-11-08T12:34:03.001Z,2.63
2022-11-08T12:36:39.909Z,2.50
2022-11-08T12:39:23.217Z,2.77
2022-11-08T12:42:04.231Z,2.93
2022-11-08T12:44:45.151Z,3.10
2022-11-08T12:47:23.475Z,4.00
2022-11-08T12:50:03.996Z,2.90
2022-11-08T12:52:42.079Z,3.20
2022-11-08T12:55:21.930Z,3.30
2022-11-08T12:57:55.683Z,9.13
2022-11-08T13:00:29.479Z,5.10
2022-11-08T13:03:07.565Z,2.93
2022-11-08T13:05:43.973Z,2.60
2022-11-08T13:08:20.423Z,2.93
2022-11-08T13:10:56.469Z,2.30
2022-11-08T13:13:32.792Z,2.73
2022-11-08T13:16:12.634Z,1.90
2022-11-08T13:18:46.797Z,2.67
2022-11-08T13:21:34.196Z,2.20
2022-11-08T13:24:43.360Z,2.70
2022-11-08T13:27:33.334Z,2.87
2022-11-08T13:30:33.150Z,2.60
2022-11-08T13:33:12.388Z,3.03
2022-11-08T13:35:52.825Z,2.20
2022-11-08T13:38:36.131Z,2.20
2022-11-08T13:41:13.624Z,2.60
2022-11-08T13:43:57.418Z,2.40
2022-11-08T13:46:46.481Z,2.40
2022-11-08T13:49:20.903Z,2.00
2022-11-08T13:52:13.553Z,2.10
2022-11-08T13:54:51.889Z,4.87
2022-11-08T13:57:39.564Z,4.93
2022-11-08T14:00:33.726Z,8.27
2022-11-08T14:03:36.283Z,12.23
2022-11-08T14:06:15.284Z,8.10
2022-11-08T14:09:07.296Z,4.53
2022-11-08T14:11:55.960Z,3.97
2022-11-08T14:14:46.097Z,3.53
2022-11-08T14:17:36.355Z,2.93
2022-11-08T14:20:29.158Z,2.93
2022-11-08T14:23:04.809Z,2.37
2022-11-08T14:25:38.817Z,2.60
2022-11-08T14:28:23.908Z,4.83
2022-11-08T14:30:57.372Z,4.10
2022-11-08T14:33:30.766Z,3.57
2022-11-08T14:36:04.226Z,4.53
2022-11-08T14:38:38.005Z,3.53
2022-11-08T14:41:15.481Z,3.20
2022-11-08T14:43:50.045Z,2.97
2022-11-08T14:46:28.392Z,2.70
2022-11-08T14:49:12.371Z,3.03
2022-11-08T14:51:45.740Z,3.23
2022-11-08T14:54:18.981Z,3.70
2022-11-08T14:56:51.928Z,3.27
2022-11-08T14:59:27.385Z,3.20
2022-11-08T15:02:00.133Z,3.10
2022-11-08T15:04:32.835Z,3.20
2022-11-08T15:07:09.454Z,3.57
2022-11-08T15:09:42.091Z,2.50
2022-11-08T15:12:15.787Z,3.30
2022-11-08T15:14:54.384Z,3.30
2022-11-08T15:17:30.673Z,3.03
2022-11-08T15:20:04.592Z,2.80
2022-11-08T15:22:39.466Z,2.90
2022-11-08T15:25:17.979Z,2.80
2022-11-08T15:27:54.583Z,3.27
2022-11-08T15:30:37.862Z,3.00
2022-11-08T15:33:21.626Z,3.40
2022-11-08T15:35:55.296Z,3.70
2022-11-08T15:38:30.144Z,3.47
2022-11-08T15:41:08.865Z,3.40
2022-11-08T15:43:46.577Z,3.17
2022-11-08T15:46:27.956Z,3.80
2022-11-08T15:49:02.955Z,3.20
2022-11-08T15:51:37.247Z,3.23
2022-11-08T15:54:14.319Z,3.40
2022-11-08T15:56:48.537Z,2.60
2022-11-08T15:59:26.957Z,2.90
2022-11-08T16:02:02.454Z,3.87
2022-11-08T16:04:36.400Z,3.87
2022-11-08T16:07:09.085Z,3.60
2022-11-08T16:09:41.775Z,6.50
2022-11-08T16:12:15.819Z,4.17
2022-11-08T16:14:48.673Z,3.90
2022-11-08T16:17:25.846Z,3.97
2022-11-08T16:19:58.624Z,3.80
2022-11-08T16:22:31.244Z,3.80
2022-11-08T16:25:04.467Z,2.90
2022-11-08T16:27:42.727Z,3.37
2022-11-08T16:30:16.611Z,3.10
2022-11-08T16:32:50.519Z,3.10
2022-11-08T16:35:23.645Z,3.10
2022-11-08T16:37:56.330Z,3.17
2022-11-08T16:40:31.044Z,3.70
2022-11-08T16:43:03.738Z,3.63
2022-11-08T16:46:03.643Z,3.50
2022-11-08T16:48:30.914Z,5.17
2022-11-08T16:51:05.910Z,3.53
2022-11-08T16:53:38.476Z,4.63
2022-11-08T16:56:12.093Z,4.10
2022-11-08T16:58:45.094Z,4.43
2022-11-08T17:01:23.783Z,4.57
2022-11-08T17:03:57.798Z,4.27
2022-11-08T17:06:32.624Z,4.17
2022-11-08T17:09:05.418Z,4.17
2022-11-08T17:11:39.815Z,4.43
2022-11-08T17:14:13.410Z,4.40
2022-11-08T17:16:51.429Z,4.63
2022-11-08T17:19:25.770Z,4.77
2022-11-08T17:21:58.300Z,4.63
2022-11-08T17:24:31.242Z,4.70
2022-11-08T17:27:04.010Z,4.83
2022-11-08T17:29:39.097Z,6.30
2022-11-08T17:32:12.761Z,5.00
2022-11-08T17:34:46.670Z,5.63
2022-11-08T17:37:19.819Z,7.27
2022-11-08T17:39:55.362Z,5.00
2022-11-08T17:42:35.664Z,4.90
2022-11-08T17:45:11.300Z,5.10
2022-11-08T17:47:44.084Z,4.93
2022-11-08T17:50:19.344Z,4.90
2022-11-08T17:52:53.813Z,4.23
2022-11-08T17:55:26.410Z,4.20
2022-11-08T17:57:59.069Z,4.10
2022-11-08T18:00:31.913Z,4.60
2022-11-08T18:06:02.998Z,3.90
2022-11-08T18:08:35.715Z,4.70
2022-11-08T18:11:08.647Z,5.30
2022-11-08T18:13:42.146Z,5.37
2022-11-08T18:16:18.162Z,5.50
2022-11-08T18:18:50.949Z,4.93
2022-11-08T18:21:24.889Z,4.30
2022-11-08T18:23:59.715Z,4.67
2022-11-08T18:26:32.482Z,5.17
2022-11-08T18:29:06.061Z,4.13
2022-11-08T18:31:38.715Z,4.33
2022-11-08T18:34:13.394Z,4.50
2022-11-08T18:36:49.104Z,4.20
2022-11-08T18:39:21.696Z,3.50
2022-11-08T18:41:54.281Z,3.40
2022-11-08T18:44:26.864Z,4.33
2022-11-08T18:46:59.477Z,3.70
2022-11-08T18:49:32.227Z,4.10
2022-11-08T18:52:08.687Z,3.50
2022-11-08T18:54:42.290Z,3.77
2022-11-08T18:57:14.913Z,3.50
2022-11-08T18:59:51.933Z,3.53
2022-11-08T19:02:24.627Z,4.10
2022-11-08T19:04:57.238Z,4.77
2022-11-08T19:07:31.651Z,5.30
2022-11-08T19:10:06.268Z,6.50
2022-11-08T19:12:38.897Z,6.20
2022-11-08T19:15:11.599Z,5.47
2022-11-08T19:17:51.442Z,5.60
2022-11-08T19:20:25.532Z,4.70
2022-11-08T19:22:59.568Z,4.47
2022-11-08T19:25:33.771Z,4.97
2022-11-08T19:28:06.574Z,3.83
2022-11-08T19:30:39.287Z,3.43
2022-11-08T19:33:11.971Z,3.10
2022-11-08T19:35:44.562Z,3.70
2022-11-08T19:38:18.643Z,3.37
2022-11-08T19:40:51.329Z,3.07
2022-11-08T19:43:24.032Z,3.50
2022-11-08T19:45:56.892Z,3.57
2022-11-08T19:48:29.792Z,3.40
2022-11-08T19:51:02.748Z,3.90
2022-11-08T19:53:36.744Z,3.60
2022-11-08T19:56:10.188Z,3.97
2022-11-08T19:58:42.894Z,3.37
2022-11-08T20:01:19.722Z,3.47
2022-11-08T20:03:57.725Z,3.60
2022-11-08T20:06:32.056Z,3.27
2022-11-08T20:09:06.414Z,3.47
2022-11-08T20:11:40.356Z,3.83
2022-11-08T20:14:13.648Z,3.57
2022-11-08T20:16:52.092Z,3.20
2022-11-08T20:19:25.675Z,3.07
2022-11-08T20:21:58.433Z,3.20
2022-11-08T20:24:35.160Z,2.90
2022-11-08T20:27:07.916Z,2.67
2022-11-08T20:29:40.457Z,3.00
2022-11-08T20:32:13.213Z,2.93
2022-11-08T20:34:46.074Z,3.30
2022-11-08T20:37:18.757Z,2.93
2022-11-08T20:39:55.675Z,3.10
2022-11-08T20:42:28.334Z,3.30
2022-11-08T20:45:03.107Z,3.40
2022-11-08T20:47:35.915Z,3.53
2022-11-08T20:50:09.773Z,3.50
2022-11-08T20:52:42.486Z,3.93
2022-11-08T20:55:16.407Z,3.23
2022-11-08T20:57:49.101Z,3.90
2022-11-08T21:00:52.000Z,4.30
2022-11-08T21:03:19.098Z,4.17
2022-11-08T21:05:55.157Z,3.10
2022-11-08T21:08:58.679Z,3.50
2022-11-08T21:11:23.658Z,3.83
2022-11-08T21:13:56.293Z,3.97
2022-11-08T21:16:31.569Z,3.50
2022-11-08T21:19:05.968Z,4.43
2022-11-08T21:21:38.603Z,4.40
2022-11-08T21:24:14.400Z,4.80
2022-11-08T21:26:48.408Z,4.67
2022-11-08T21:29:24.024Z,4.07
2022-11-08T21:31:56.569Z,3.37
2022-11-08T21:34:32.571Z,3.70
2022-11-08T21:37:05.470Z,3.70
2022-11-08T21:39:38.329Z,3.40
2022-11-08T21:42:12.255Z,3.23
2022-11-08T21:44:45.951Z,3.43
2022-11-08T21:47:18.513Z,3.57
2022-11-08T21:49:52.020Z,2.90
2022-11-08T21:52:24.735Z,2.80
2022-11-08T21:54:57.340Z,3.03
2022-11-08T21:57:31.322Z,3.13
2022-11-08T22:00:04.471Z,3.00
2022-11-08T22:02:41.288Z,3.73
2022-11-08T22:05:13.942Z,3.90
2022-11-08T22:07:46.530Z,3.67
2022-11-08T22:10:21.391Z,3.40
2022-11-08T22:12:55.287Z,2.93
2022-11-08T22:15:28.122Z,3.30
2022-11-08T22:18:15.204Z,2.63
2022-11-08T22:21:07.990Z,3.03
2022-11-08T22:23:40.541Z,2.97
2022-11-08T22:26:13.192Z,2.80
2022-11-08T22:28:47.129Z,3.27
2022-11-08T22:31:19.724Z,3.40
2022-11-08T22:33:54.657Z,3.13
2022-11-08T22:36:27.676Z,3.10
2022-11-08T22:39:00.588Z,2.90
2022-11-08T22:41:33.357Z,2.97
2022-11-08T22:44:11.660Z,3.20
2022-11-08T22:46:45.772Z,3.33
2022-11-08T22:49:18.449Z,3.30
2022-11-08T22:51:51.014Z,3.10
2022-11-08T22:54:23.712Z,3.30
2022-11-08T22:56:56.444Z,2.97
2022-11-08T22:59:30.421Z,2.97
2022-11-08T23:02:03.097Z,2.73
2022-11-08T23:04:35.576Z,2.77
2022-11-08T23:07:08.343Z,2.77
2022-11-08T23:09:41.103Z,3.10
2022-11-08T23:12:31.278Z,3.10
2022-11-08T23:15:23.039Z,2.97
2022-11-08T23:17:55.766Z,2.83
2022-11-08T23:20:45.951Z,2.83
2022-11-08T23:23:36.126Z,3.30
2022-11-08T23:26:10.771Z,3.37
2022-11-08T23:29:01.125Z,3.07
2022-11-08T23:31:38.021Z,3.27
2022-11-08T23:34:12.871Z,3.47
2022-11-08T23:36:45.426Z,2.60
2022-11-08T23:39:18.166Z,3.33
2022-11-08T23:42:10.223Z,2.90
2022-11-08T23:44:43.430Z,2.90
2022-11-08T23:47:17.345Z,3.13
2022-11-08T23:49:50.079Z,3.07
2022-11-08T23:52:22.694Z,2.93
2022-11-08T23:54:55.347Z,2.90
2022-11-08T23:57:27.980Z,2.83
